createdAt,value
2022-11-29T00:00:03.340Z,559.81
2022-11-29T00:00:10.482Z,559.82
2022-11-29T00:00:20.490Z,559.84
2022-11-29T00:00:30.487Z,559.91
2022-11-29T00:00:40.490Z,559.92
2022-11-29T00:00:50.494Z,559.93
2022-11-29T00:01:00.492Z,559.97
2022-11-29T00:01:10.491Z,559.99
2022-11-29T00:01:20.491Z,560.00
2022-11-29T00:01:30.504Z,559.95
2022-11-29T00:01:40.497Z,560.01
2022-11-29T00:01:50.536Z,560.00
2022-11-29T00:02:00.609Z,560.03
2022-11-29T00:02:10.600Z,560.05
2022-11-29T00:02:20.688Z,560.04
2022-11-29T00:02:30.564Z,560.06
2022-11-29T00:02:40.607Z,559.99
2022-11-29T00:02:50.609Z,560.09
2022-11-29T00:03:00.660Z,560.09
2022-11-29T00:03:10.623Z,560.08
2022-11-29T00:03:20.655Z,560.10
2022-11-29T00:03:30.534Z,560.09
2022-11-29T00:03:40.515Z,560.17
2022-11-29T00:03:50.505Z,560.14
2022-11-29T00:04:00.508Z,560.11
2022-11-29T00:04:10.519Z,560.20
2022-11-29T00:04:20.514Z,560.14
2022-11-29T00:04:30.515Z,560.19
2022-11-29T00:04:40.679Z,560.24
2022-11-29T00:04:50.514Z,560.17
2022-11-29T00:05:00.517Z,560.23
2022-11-29T00:05:10.512Z,560.25
2022-11-29T00:05:20.519Z,560.24
2022-11-29T00:05:30.519Z,560.24
2022-11-29T00:05:40.517Z,560.25
2022-11-29T00:05:50.522Z,560.26
2022-11-29T00:06:00.523Z,560.25
2022-11-29T00:06:10.520Z,560.21
2022-11-29T00:06:20.503Z,560.18
2022-11-29T00:06:30.521Z,560.17
2022-11-29T00:06:40.527Z,560.26
2022-11-29T00:06:50.524Z,560.25
2022-11-29T00:07:00.509Z,560.25
2022-11-29T00:07:10.509Z,560.20
2022-11-29T00:07:20.546Z,560.19
2022-11-29T00:07:30.550Z,560.26
2022-11-29T00:07:40.568Z,560.25
2022-11-29T00:07:50.566Z,560.25
2022-11-29T00:08:00.528Z,560.24
2022-11-29T00:08:10.529Z,560.21
2022-11-29T00:08:20.511Z,560.19
2022-11-29T00:08:30.534Z,560.29
2022-11-29T00:08:40.542Z,560.26
2022-11-29T00:08:50.535Z,560.29
2022-11-29T00:09:00.535Z,560.23
2022-11-29T00:09:10.542Z,560.21
2022-11-29T00:09:20.522Z,560.20
2022-11-29T00:09:30.540Z,560.27
2022-11-29T00:09:40.537Z,560.27
2022-11-29T00:09:50.522Z,560.25
2022-11-29T00:10:00.547Z,560.21
2022-11-29T00:10:10.538Z,560.19
2022-11-29T00:10:20.555Z,560.22
2022-11-29T00:10:30.526Z,560.19
2022-11-29T00:10:40.542Z,560.15
2022-11-29T00:10:50.531Z,560.18
2022-11-29T00:11:00.554Z,560.15
2022-11-29T00:11:10.547Z,560.13
2022-11-29T00:11:20.548Z,560.19
2022-11-29T00:11:30.553Z,560.21
2022-11-29T00:11:40.530Z,560.19
2022-11-29T00:11:50.556Z,560.15
2022-11-29T00:12:00.556Z,560.13
2022-11-29T00:12:10.552Z,560.16
2022-11-29T00:12:20.552Z,560.16
2022-11-29T00:12:30.536Z,560.14
2022-11-29T00:12:40.559Z,560.20
2022-11-29T00:12:50.555Z,560.20
2022-11-29T00:13:00.555Z,560.13
2022-11-29T00:13:10.561Z,560.17
2022-11-29T00:13:20.555Z,560.13
2022-11-29T00:13:30.559Z,560.15
2022-11-29T00:13:40.576Z,560.17
2022-11-29T00:13:50.556Z,560.15
2022-11-29T00:14:00.565Z,560.07
2022-11-29T00:14:10.557Z,560.10
2022-11-29T00:14:20.572Z,560.16
2022-11-29T00:14:30.560Z,560.13
2022-11-29T00:14:40.656Z,560.12
2022-11-29T00:14:50.562Z,560.09
2022-11-29T00:15:00.547Z,560.09
2022-11-29T00:15:10.555Z,560.14
2022-11-29T00:15:20.545Z,560.16
2022-11-29T00:15:30.566Z,560.12
2022-11-29T00:15:40.564Z,560.08
2022-11-29T00:15:50.569Z,560.09
2022-11-29T00:16:00.569Z,560.19
2022-11-29T00:16:10.664Z,560.16
2022-11-29T00:16:20.633Z,560.14
2022-11-29T00:16:30.614Z,560.19
2022-11-29T00:16:40.594Z,560.19
2022-11-29T00:16:50.611Z,560.15
2022-11-29T00:17:00.625Z,560.18
2022-11-29T00:17:10.571Z,560.18
2022-11-29T00:17:20.574Z,560.18
2022-11-29T00:17:30.556Z,560.18
2022-11-29T00:17:40.559Z,560.24
2022-11-29T00:17:50.562Z,560.25
2022-11-29T00:18:00.581Z,560.29
2022-11-29T00:18:10.581Z,560.23
2022-11-29T00:18:20.578Z,560.30
2022-11-29T00:18:30.585Z,560.32
2022-11-29T00:18:40.586Z,560.31
2022-11-29T00:18:50.585Z,560.40
2022-11-29T00:19:00.579Z,560.35
2022-11-29T00:19:10.581Z,560.34
2022-11-29T00:19:20.583Z,560.46
2022-11-29T00:19:30.582Z,560.41
2022-11-29T00:19:40.583Z,560.40
2022-11-29T00:19:50.583Z,560.50
2022-11-29T00:20:00.599Z,560.46
2022-11-29T00:20:10.589Z,560.48
2022-11-29T00:20:20.586Z,560.58
2022-11-29T00:20:30.586Z,560.59
2022-11-29T00:20:40.590Z,560.65
2022-11-29T00:20:50.593Z,560.59
2022-11-29T00:21:00.588Z,560.58
2022-11-29T00:21:10.590Z,560.70
2022-11-29T00:21:20.595Z,560.71
2022-11-29T00:21:30.594Z,560.72
2022-11-29T00:21:40.591Z,560.70
2022-11-29T00:21:50.597Z,560.72
2022-11-29T00:22:00.594Z,560.74
2022-11-29T00:22:10.594Z,560.78
2022-11-29T00:22:20.596Z,560.77
2022-11-29T00:22:30.598Z,560.86
2022-11-29T00:22:40.599Z,560.90
2022-11-29T00:22:50.600Z,560.90
2022-11-29T00:23:00.603Z,560.93
2022-11-29T00:23:10.607Z,560.90
2022-11-29T00:23:20.605Z,560.97
2022-11-29T00:23:30.616Z,560.93
2022-11-29T00:23:40.607Z,560.91
2022-11-29T00:23:50.611Z,560.89
2022-11-29T00:24:00.606Z,561.00
2022-11-29T00:24:10.605Z,561.00
2022-11-29T00:24:20.603Z,560.93
2022-11-29T00:24:30.608Z,561.03
2022-11-29T00:24:40.613Z,561.05
2022-11-29T00:24:50.606Z,561.03
2022-11-29T00:25:00.591Z,561.03
2022-11-29T00:25:10.610Z,561.09
2022-11-29T00:25:20.612Z,561.04
2022-11-29T00:25:30.632Z,561.05
2022-11-29T00:25:40.612Z,561.10
2022-11-29T00:25:50.617Z,561.06
2022-11-29T00:26:00.614Z,561.03
2022-11-29T00:26:10.616Z,561.01
2022-11-29T00:26:20.613Z,561.08
2022-11-29T00:26:30.597Z,561.05
2022-11-29T00:26:40.619Z,561.04
2022-11-29T00:26:50.616Z,561.11
2022-11-29T00:27:00.618Z,561.13
2022-11-29T00:27:10.616Z,561.14
2022-11-29T00:27:20.617Z,561.10
2022-11-29T00:27:30.618Z,561.11
2022-11-29T00:27:40.603Z,561.08
2022-11-29T00:27:50.631Z,561.11
2022-11-29T00:28:00.623Z,561.10
2022-11-29T00:28:10.621Z,561.16
2022-11-29T00:28:20.628Z,561.16
2022-11-29T00:28:30.627Z,561.17
2022-11-29T00:28:40.633Z,561.14
2022-11-29T00:28:50.630Z,561.22
2022-11-29T00:29:00.627Z,561.20
2022-11-29T00:29:10.628Z,561.25
2022-11-29T00:29:20.630Z,561.26
2022-11-29T00:29:30.637Z,561.25
2022-11-29T00:29:40.629Z,561.30
2022-11-29T00:29:50.634Z,561.22
2022-11-29T00:30:00.632Z,561.33
2022-11-29T00:30:10.633Z,561.31
2022-11-29T00:30:20.635Z,561.36
2022-11-29T00:30:30.687Z,561.35
2022-11-29T00:30:40.648Z,561.37
2022-11-29T00:30:50.670Z,561.43
2022-11-29T00:31:00.706Z,561.42
2022-11-29T00:31:10.659Z,561.44
2022-11-29T00:31:20.625Z,561.43
2022-11-29T00:31:30.649Z,561.50
2022-11-29T00:31:40.644Z,561.46
2022-11-29T00:31:50.642Z,561.54
2022-11-29T00:32:00.649Z,561.52
2022-11-29T00:32:10.643Z,561.56
2022-11-29T00:32:20.669Z,561.55
2022-11-29T00:32:30.645Z,561.54
2022-11-29T00:32:40.645Z,561.59
2022-11-29T00:32:50.647Z,561.57
2022-11-29T00:33:00.655Z,561.61
2022-11-29T00:33:10.641Z,561.61
2022-11-29T00:33:20.647Z,561.54
2022-11-29T00:33:30.647Z,561.57
2022-11-29T00:33:40.651Z,561.56
2022-11-29T00:33:50.653Z,561.53
2022-11-29T00:34:00.636Z,561.54
2022-11-29T00:34:10.678Z,561.54
2022-11-29T00:34:20.656Z,561.52
2022-11-29T00:34:30.654Z,561.49
2022-11-29T00:34:40.798Z,561.48
2022-11-29T00:34:50.639Z,561.52
2022-11-29T00:35:03.980Z,561.47
2022-11-29T00:35:11.660Z,561.46
2022-11-29T00:35:20.668Z,561.44
2022-11-29T00:35:30.660Z,561.34
2022-11-29T00:35:40.658Z,561.41
2022-11-29T00:35:50.659Z,561.40
2022-11-29T00:36:00.660Z,561.33
2022-11-29T00:36:10.662Z,561.30
2022-11-29T00:36:20.661Z,561.26
2022-11-29T00:36:30.663Z,561.33
2022-11-29T00:36:40.664Z,561.24
2022-11-29T00:36:50.664Z,561.22
2022-11-29T00:37:00.669Z,561.29
2022-11-29T00:37:10.669Z,561.27
2022-11-29T00:37:20.673Z,561.23
2022-11-29T00:37:30.668Z,561.18
2022-11-29T00:37:40.672Z,561.17
2022-11-29T00:37:50.672Z,561.11
2022-11-29T00:38:00.669Z,561.16
2022-11-29T00:38:10.653Z,561.06
2022-11-29T00:38:20.690Z,561.01
2022-11-29T00:38:30.673Z,561.08
2022-11-29T00:38:40.672Z,561.06
2022-11-29T00:38:50.674Z,561.05
2022-11-29T00:39:00.673Z,561.01
2022-11-29T00:39:10.678Z,560.99
2022-11-29T00:39:20.683Z,560.94
2022-11-29T00:39:30.677Z,560.91
2022-11-29T00:39:40.681Z,560.88
2022-11-29T00:39:50.682Z,560.95
2022-11-29T00:40:00.679Z,560.86
2022-11-29T00:40:10.680Z,560.83
2022-11-29T00:40:20.681Z,560.87
2022-11-29T00:40:30.685Z,560.84
2022-11-29T00:40:40.682Z,560.89
2022-11-29T00:40:50.684Z,560.87
2022-11-29T00:41:00.684Z,560.86
2022-11-29T00:41:10.686Z,560.82
2022-11-29T00:41:20.686Z,560.80
2022-11-29T00:41:30.694Z,560.80
2022-11-29T00:41:40.696Z,560.85
2022-11-29T00:41:50.691Z,560.84
2022-11-29T00:42:00.690Z,560.84
2022-11-29T00:42:10.705Z,560.82
2022-11-29T00:42:20.695Z,560.80
2022-11-29T00:42:30.688Z,560.78
2022-11-29T00:42:40.694Z,560.88
2022-11-29T00:42:50.694Z,560.89
2022-11-29T00:43:00.713Z,560.86
2022-11-29T00:43:10.695Z,560.87
2022-11-29T00:43:20.695Z,560.88
2022-11-29T00:43:30.698Z,560.91
2022-11-29T00:43:40.696Z,560.89
2022-11-29T00:43:50.704Z,560.85
2022-11-29T00:44:00.700Z,560.93
2022-11-29T00:44:15.279Z,560.85
2022-11-29T00:44:21.698Z,560.87
2022-11-29T00:44:30.699Z,560.98
2022-11-29T00:44:40.846Z,560.94
2022-11-29T00:44:50.700Z,560.96
2022-11-29T00:45:00.702Z,560.97
2022-11-29T00:45:10.715Z,560.94
2022-11-29T00:45:20.713Z,561.00
2022-11-29T00:45:30.707Z,561.00
2022-11-29T00:45:40.737Z,561.00
2022-11-29T00:45:50.770Z,560.98
2022-11-29T00:46:00.736Z,560.98
2022-11-29T00:46:10.759Z,560.99
2022-11-29T00:46:20.741Z,561.07
2022-11-29T00:46:30.706Z,561.07
2022-11-29T00:46:40.715Z,560.99
2022-11-29T00:46:50.709Z,561.09
2022-11-29T00:47:00.711Z,561.05
2022-11-29T00:47:10.698Z,561.08
2022-11-29T00:47:20.713Z,561.06
2022-11-29T00:47:30.711Z,561.11
2022-11-29T00:47:40.714Z,561.15
2022-11-29T00:47:50.696Z,561.08
2022-11-29T00:48:00.715Z,561.12
2022-11-29T00:48:10.714Z,561.12
2022-11-29T00:48:20.715Z,561.09
2022-11-29T00:48:30.718Z,561.06
2022-11-29T00:48:40.717Z,561.15
2022-11-29T00:48:50.736Z,561.15
2022-11-29T00:49:00.720Z,561.14
2022-11-29T00:49:10.720Z,561.18
2022-11-29T00:49:20.720Z,561.16
2022-11-29T00:49:30.723Z,561.15
2022-11-29T00:49:40.722Z,561.19
2022-11-29T00:49:50.724Z,561.16
2022-11-29T00:50:00.722Z,561.13
2022-11-29T00:50:10.724Z,561.11
2022-11-29T00:50:20.732Z,561.11
2022-11-29T00:50:30.727Z,561.16
2022-11-29T00:50:40.728Z,561.13
2022-11-29T00:50:50.735Z,561.13
2022-11-29T00:51:00.728Z,561.15
2022-11-29T00:51:10.732Z,561.13
2022-11-29T00:51:20.733Z,561.10
2022-11-29T00:51:30.729Z,561.11
2022-11-29T00:51:40.730Z,561.05
2022-11-29T00:51:50.732Z,561.01
2022-11-29T00:52:00.732Z,561.05
2022-11-29T00:52:10.731Z,561.03
2022-11-29T00:52:20.737Z,561.08
2022-11-29T00:52:30.735Z,561.04
2022-11-29T00:52:40.736Z,561.01
2022-11-29T00:52:50.734Z,561.04
2022-11-29T00:53:00.740Z,561.00
2022-11-29T00:53:10.740Z,560.99
2022-11-29T00:53:20.742Z,561.06
2022-11-29T00:53:30.739Z,561.02
2022-11-29T00:53:40.751Z,561.04
2022-11-29T00:53:50.756Z,560.97
2022-11-29T00:54:00.743Z,560.96
2022-11-29T00:54:10.763Z,560.96
2022-11-29T00:54:20.743Z,561.02
2022-11-29T00:54:30.750Z,560.99
2022-11-29T00:54:40.819Z,560.99
2022-11-29T00:54:50.748Z,561.03
2022-11-29T00:55:00.729Z,560.99
2022-11-29T00:55:10.745Z,560.96
2022-11-29T00:55:20.746Z,560.93
2022-11-29T00:55:30.745Z,560.91
2022-11-29T00:55:40.747Z,560.91
2022-11-29T00:55:50.749Z,560.88
2022-11-29T00:56:00.752Z,560.93
2022-11-29T00:56:10.731Z,560.88
2022-11-29T00:56:20.753Z,560.89
2022-11-29T00:56:30.757Z,560.90
2022-11-29T00:56:40.756Z,560.87
2022-11-29T00:56:50.753Z,560.86
2022-11-29T00:57:00.759Z,560.92
2022-11-29T00:57:10.755Z,560.91
2022-11-29T00:57:20.759Z,560.90
2022-11-29T00:57:30.743Z,560.87
2022-11-29T00:57:40.763Z,560.86
2022-11-29T00:57:50.759Z,560.84
2022-11-29T00:58:00.746Z,560.86
2022-11-29T00:58:10.765Z,560.84
2022-11-29T00:58:20.762Z,560.81
2022-11-29T00:58:30.765Z,560.81
2022-11-29T00:58:40.762Z,560.82
2022-11-29T00:58:50.774Z,560.85
2022-11-29T00:59:00.765Z,560.82
2022-11-29T00:59:10.765Z,560.87
2022-11-29T00:59:20.766Z,560.84
2022-11-29T00:59:30.771Z,560.82
2022-11-29T00:59:40.769Z,560.86
2022-11-29T00:59:50.773Z,560.80
2022-11-29T01:00:00.758Z,560.85
2022-11-29T01:00:10.771Z,560.84
2022-11-29T01:00:20.775Z,560.87
2022-11-29T01:00:30.777Z,560.85
2022-11-29T01:00:40.774Z,560.84
2022-11-29T01:00:50.903Z,560.82
2022-11-29T01:01:00.859Z,560.80
2022-11-29T01:01:10.808Z,560.86
2022-11-29T01:01:20.860Z,560.85
2022-11-29T01:01:30.815Z,560.85
2022-11-29T01:01:40.831Z,560.83
2022-11-29T01:01:50.782Z,560.86
2022-11-29T01:02:00.833Z,560.86
2022-11-29T01:02:10.793Z,560.82
2022-11-29T01:02:20.845Z,560.82
2022-11-29T01:02:30.843Z,560.86
2022-11-29T01:02:40.818Z,560.83
2022-11-29T01:02:50.782Z,560.81
2022-11-29T01:03:00.787Z,560.82
2022-11-29T01:03:10.784Z,560.86
2022-11-29T01:03:20.770Z,560.82
2022-11-29T01:03:30.783Z,560.92
2022-11-29T01:03:40.790Z,560.93
2022-11-29T01:03:50.778Z,560.86
2022-11-29T01:04:00.788Z,560.93
2022-11-29T01:04:10.771Z,560.90
2022-11-29T01:04:20.799Z,560.88
2022-11-29T01:04:30.790Z,560.91
2022-11-29T01:04:40.773Z,560.88
2022-11-29T01:04:50.774Z,560.87
2022-11-29T01:05:00.793Z,560.85
2022-11-29T01:05:10.794Z,560.89
2022-11-29T01:05:20.797Z,560.87
2022-11-29T01:05:30.797Z,560.87
2022-11-29T01:05:40.795Z,560.85
2022-11-29T01:05:50.795Z,560.93
2022-11-29T01:06:00.780Z,560.89
2022-11-29T01:06:10.798Z,560.87
2022-11-29T01:06:20.799Z,560.91
2022-11-29T01:06:30.805Z,560.95
2022-11-29T01:06:40.803Z,560.91
2022-11-29T01:06:50.801Z,560.93
2022-11-29T01:07:00.801Z,560.98
2022-11-29T01:07:10.800Z,560.99
2022-11-29T01:07:20.906Z,561.00
2022-11-29T01:07:30.842Z,561.04
2022-11-29T01:07:40.888Z,561.02
2022-11-29T01:07:50.849Z,561.05
2022-11-29T01:08:00.806Z,561.03
2022-11-29T01:08:10.806Z,561.09
2022-11-29T01:08:20.806Z,561.08
2022-11-29T01:08:30.808Z,561.11
2022-11-29T01:08:40.819Z,561.08
2022-11-29T01:08:50.819Z,561.08
2022-11-29T01:09:00.810Z,561.08
2022-11-29T01:09:10.816Z,561.15
2022-11-29T01:09:20.811Z,561.15
2022-11-29T01:09:30.813Z,561.14
2022-11-29T01:09:40.811Z,561.11
2022-11-29T01:09:50.814Z,561.09
2022-11-29T01:10:00.814Z,561.13
2022-11-29T01:10:10.827Z,561.14
2022-11-29T01:10:20.818Z,561.08
2022-11-29T01:10:30.816Z,561.13
2022-11-29T01:10:40.814Z,561.14
2022-11-29T01:10:50.822Z,561.13
2022-11-29T01:11:00.814Z,561.11
2022-11-29T01:11:10.819Z,561.07
2022-11-29T01:11:20.818Z,561.05
2022-11-29T01:11:30.818Z,561.11
2022-11-29T01:11:40.819Z,561.07
2022-11-29T01:11:50.822Z,561.04
2022-11-29T01:12:00.827Z,561.06
2022-11-29T01:12:10.825Z,561.09
2022-11-29T01:12:20.808Z,561.07
2022-11-29T01:12:30.825Z,561.01
2022-11-29T01:12:40.827Z,561.01
2022-11-29T01:12:50.831Z,561.02
2022-11-29T01:13:00.834Z,560.99
2022-11-29T01:13:10.829Z,560.96
2022-11-29T01:13:20.832Z,561.02
2022-11-29T01:13:30.831Z,561.00
2022-11-29T01:13:40.831Z,560.98
2022-11-29T01:13:50.871Z,560.93
2022-11-29T01:14:00.834Z,560.96
2022-11-29T01:14:10.834Z,560.94
2022-11-29T01:14:20.839Z,560.91
2022-11-29T01:14:30.822Z,560.87
2022-11-29T01:14:40.828Z,560.93
2022-11-29T01:14:50.837Z,560.91
2022-11-29T01:15:00.839Z,560.85
2022-11-29T01:15:10.838Z,560.90
2022-11-29T01:15:20.840Z,560.89
2022-11-29T01:15:30.838Z,560.77
2022-11-29T01:15:40.843Z,560.82
2022-11-29T01:15:50.842Z,560.77
2022-11-29T01:16:00.841Z,560.73
2022-11-29T01:16:10.845Z,560.74
2022-11-29T01:16:20.888Z,560.79
2022-11-29T01:16:30.889Z,560.70
2022-11-29T01:16:40.930Z,560.77
2022-11-29T01:16:50.873Z,560.77
2022-11-29T01:17:00.887Z,560.75
2022-11-29T01:17:10.869Z,560.75
2022-11-29T01:17:20.836Z,560.74
2022-11-29T01:17:30.852Z,560.74
2022-11-29T01:17:40.852Z,560.72
2022-11-29T01:17:50.852Z,560.70
2022-11-29T01:18:00.850Z,560.71
2022-11-29T01:18:10.853Z,560.72
2022-11-29T01:18:20.873Z,560.73
2022-11-29T01:18:30.857Z,560.66
2022-11-29T01:18:40.861Z,560.65
2022-11-29T01:18:51.424Z,560.63
2022-11-29T01:19:00.863Z,560.70
2022-11-29T01:19:10.857Z,560.74
2022-11-29T01:19:20.858Z,560.70
2022-11-29T01:19:30.863Z,560.67
2022-11-29T01:19:42.355Z,560.65
2022-11-29T01:19:51.244Z,560.71
2022-11-29T01:20:00.848Z,560.71
2022-11-29T01:20:10.864Z,560.65
2022-11-29T01:20:20.891Z,560.73
2022-11-29T01:20:30.863Z,560.73
2022-11-29T01:20:40.861Z,560.65
2022-11-29T01:20:50.866Z,560.74
2022-11-29T01:21:00.866Z,560.71
2022-11-29T01:21:10.865Z,560.71
2022-11-29T01:21:20.887Z,560.67
2022-11-29T01:21:30.867Z,560.64
2022-11-29T01:21:40.871Z,560.71
2022-11-29T01:21:50.871Z,560.64
2022-11-29T01:22:00.871Z,560.68
2022-11-29T01:22:10.870Z,560.64
2022-11-29T01:22:20.876Z,560.61
2022-11-29T01:22:30.872Z,560.60
2022-11-29T01:22:40.873Z,560.68
2022-11-29T01:22:50.879Z,560.67
2022-11-29T01:23:00.872Z,560.64
2022-11-29T01:23:10.872Z,560.58
2022-11-29T01:23:20.887Z,560.58
2022-11-29T01:23:30.872Z,560.54
2022-11-29T01:23:40.875Z,560.62
2022-11-29T01:23:50.876Z,560.54
2022-11-29T01:24:00.880Z,560.58
2022-11-29T01:24:10.877Z,560.51
2022-11-29T01:24:20.887Z,560.56
2022-11-29T01:24:30.878Z,560.54
2022-11-29T01:24:40.998Z,560.55
2022-11-29T01:24:50.862Z,560.55
2022-11-29T01:25:00.880Z,560.50
2022-11-29T01:25:10.881Z,560.55
2022-11-29T01:25:20.885Z,560.53
2022-11-29T01:25:30.882Z,560.45
2022-11-29T01:25:40.885Z,560.49
2022-11-29T01:25:50.886Z,560.49
2022-11-29T01:26:00.884Z,560.45
2022-11-29T01:26:10.884Z,560.46
2022-11-29T01:26:20.886Z,560.39
2022-11-29T01:26:30.885Z,560.49
2022-11-29T01:26:40.873Z,560.46
2022-11-29T01:26:50.888Z,560.41
2022-11-29T01:27:00.888Z,560.49
2022-11-29T01:27:10.895Z,560.48
2022-11-29T01:27:20.892Z,560.43
2022-11-29T01:27:30.875Z,560.49
2022-11-29T01:27:40.891Z,560.42
2022-11-29T01:27:50.889Z,560.43
2022-11-29T01:28:00.893Z,560.42
2022-11-29T01:28:10.896Z,560.46
2022-11-29T01:28:20.894Z,560.49
2022-11-29T01:28:30.904Z,560.44
2022-11-29T01:28:40.897Z,560.45
2022-11-29T01:28:50.900Z,560.40
2022-11-29T01:29:00.903Z,560.40
2022-11-29T01:29:10.898Z,560.42
2022-11-29T01:29:20.903Z,560.43
2022-11-29T01:29:30.906Z,560.41
2022-11-29T01:29:40.903Z,560.38
2022-11-29T01:29:50.904Z,560.41
2022-11-29T01:30:00.904Z,560.40
2022-11-29T01:30:10.909Z,560.40
2022-11-29T01:30:20.909Z,560.39
2022-11-29T01:30:30.960Z,560.36
2022-11-29T01:30:41.065Z,560.32
2022-11-29T01:30:50.951Z,560.30
2022-11-29T01:31:00.938Z,560.28
2022-11-29T01:31:10.973Z,560.33
2022-11-29T01:31:20.912Z,560.32
2022-11-29T01:31:30.917Z,560.34
2022-11-29T01:31:40.915Z,560.31
2022-11-29T01:31:50.912Z,560.31
2022-11-29T01:32:00.914Z,560.29
2022-11-29T01:32:10.918Z,560.29
2022-11-29T01:32:20.913Z,560.28
2022-11-29T01:32:30.912Z,560.24
2022-11-29T01:32:40.919Z,560.26
2022-11-29T01:32:50.916Z,560.24
2022-11-29T01:33:00.920Z,560.27
2022-11-29T01:33:10.928Z,560.24
2022-11-29T01:33:20.922Z,560.16
2022-11-29T01:33:30.954Z,560.24
2022-11-29T01:33:40.932Z,560.19
2022-11-29T01:33:50.928Z,560.20
2022-11-29T01:34:00.932Z,560.16
2022-11-29T01:34:10.935Z,560.10
2022-11-29T01:34:20.927Z,560.16
2022-11-29T01:34:30.927Z,560.16
2022-11-29T01:34:41.047Z,560.10
2022-11-29T01:34:50.928Z,560.17
2022-11-29T01:35:00.934Z,560.15
2022-11-29T01:35:10.936Z,560.13
2022-11-29T01:35:20.935Z,560.10
2022-11-29T01:35:30.933Z,560.12
2022-11-29T01:35:40.960Z,560.09
2022-11-29T01:35:50.936Z,560.08
2022-11-29T01:36:00.936Z,560.04
2022-11-29T01:36:10.942Z,560.08
2022-11-29T01:36:20.940Z,560.11
2022-11-29T01:36:30.941Z,560.10
2022-11-29T01:36:40.945Z,560.07
2022-11-29T01:36:50.948Z,560.02
2022-11-29T01:37:00.945Z,560.00
2022-11-29T01:37:10.947Z,560.13
2022-11-29T01:37:20.945Z,560.03
2022-11-29T01:37:30.945Z,560.08
2022-11-29T01:37:40.946Z,560.04
2022-11-29T01:37:50.945Z,560.01
2022-11-29T01:38:00.952Z,560.00
2022-11-29T01:38:10.946Z,560.07
2022-11-29T01:38:20.954Z,560.00
2022-11-29T01:38:30.950Z,559.97
2022-11-29T01:38:40.951Z,560.04
2022-11-29T01:38:50.952Z,560.04
2022-11-29T01:39:00.956Z,560.03
2022-11-29T01:39:10.954Z,560.04
2022-11-29T01:39:20.961Z,560.04
2022-11-29T01:39:30.957Z,560.03
2022-11-29T01:39:40.958Z,560.01
2022-11-29T01:39:50.958Z,560.01
2022-11-29T01:40:00.959Z,559.95
2022-11-29T01:40:10.963Z,559.91
2022-11-29T01:40:20.966Z,559.91
2022-11-29T01:40:30.962Z,559.94
2022-11-29T01:40:40.961Z,559.87
2022-11-29T01:40:50.964Z,559.84
2022-11-29T01:41:00.969Z,559.90
2022-11-29T01:41:10.966Z,559.88
2022-11-29T01:41:20.970Z,559.79
2022-11-29T01:41:30.970Z,559.88
2022-11-29T01:41:40.968Z,559.79
2022-11-29T01:41:50.968Z,559.84
2022-11-29T01:42:00.969Z,559.82
2022-11-29T01:42:10.975Z,559.82
2022-11-29T01:42:20.972Z,559.78
2022-11-29T01:42:30.974Z,559.74
2022-11-29T01:42:40.990Z,559.71
2022-11-29T01:42:50.976Z,559.80
2022-11-29T01:43:00.977Z,559.72
2022-11-29T01:43:10.975Z,559.67
2022-11-29T01:43:20.980Z,559.76
2022-11-29T01:43:30.979Z,559.73
2022-11-29T01:43:40.981Z,559.75
2022-11-29T01:43:50.984Z,559.76
2022-11-29T01:44:00.995Z,559.65
2022-11-29T01:44:10.985Z,559.73
2022-11-29T01:44:20.986Z,559.64
2022-11-29T01:44:30.989Z,559.64
2022-11-29T01:44:40.995Z,559.72
2022-11-29T01:44:50.987Z,559.63
2022-11-29T01:45:00.991Z,559.60
2022-11-29T01:45:10.988Z,559.65
2022-11-29T01:45:21.001Z,559.57
2022-11-29T01:45:30.991Z,559.62
2022-11-29T01:45:41.027Z,559.56
2022-11-29T01:45:51.011Z,559.54
2022-11-29T01:46:01.048Z,559.59
2022-11-29T01:46:11.071Z,559.55
2022-11-29T01:46:21.032Z,559.52
2022-11-29T01:46:31.037Z,559.53
2022-11-29T01:46:40.998Z,559.49
2022-11-29T01:46:51.001Z,559.49
2022-11-29T01:47:01.002Z,559.53
2022-11-29T01:47:11.006Z,559.53
2022-11-29T01:47:20.998Z,559.51
2022-11-29T01:47:31.000Z,559.48
2022-11-29T01:47:41.003Z,559.42
2022-11-29T01:47:51.000Z,559.40
2022-11-29T01:48:01.002Z,559.50
2022-11-29T01:48:11.006Z,559.50
2022-11-29T01:48:21.004Z,559.48
2022-11-29T01:48:31.009Z,559.45
2022-11-29T01:48:41.006Z,559.42
2022-11-29T01:48:51.008Z,559.49
2022-11-29T01:49:01.010Z,559.44
2022-11-29T01:49:11.008Z,559.42
2022-11-29T01:49:21.011Z,559.48
2022-11-29T01:49:30.996Z,559.45
2022-11-29T01:49:41.011Z,559.48
2022-11-29T01:49:51.010Z,559.41
2022-11-29T01:50:01.012Z,559.41
2022-11-29T01:50:11.027Z,559.39
2022-11-29T01:50:21.014Z,559.49
2022-11-29T01:50:31.023Z,559.47
2022-11-29T01:50:41.017Z,559.48
2022-11-29T01:50:51.022Z,559.45
2022-11-29T01:51:01.018Z,559.45
2022-11-29T01:51:11.020Z,559.50
2022-11-29T01:51:21.018Z,559.46
2022-11-29T01:51:31.034Z,559.48
2022-11-29T01:51:41.023Z,559.47
2022-11-29T01:51:51.022Z,559.55
2022-11-29T01:52:01.023Z,559.55
2022-11-29T01:52:11.026Z,559.52
2022-11-29T01:52:21.027Z,559.53
2022-11-29T01:52:31.023Z,559.52
2022-11-29T01:52:41.022Z,559.62
2022-11-29T01:52:51.023Z,559.63
2022-11-29T01:53:01.026Z,559.63
2022-11-29T01:53:11.024Z,559.61
2022-11-29T01:53:21.025Z,559.61
2022-11-29T01:53:31.024Z,559.61
2022-11-29T01:53:41.028Z,559.68
2022-11-29T01:53:51.031Z,559.70
2022-11-29T01:54:01.042Z,559.63
2022-11-29T01:54:11.034Z,559.73
2022-11-29T01:54:21.035Z,559.73
2022-11-29T01:54:31.015Z,559.70
2022-11-29T01:54:41.114Z,559.69
2022-11-29T01:54:51.035Z,559.77
2022-11-29T01:55:01.025Z,559.76
2022-11-29T01:55:11.033Z,559.74
2022-11-29T01:55:21.037Z,559.72
2022-11-29T01:55:31.093Z,559.75
2022-11-29T01:55:41.058Z,559.72
2022-11-29T01:55:51.060Z,559.74
2022-11-29T01:56:01.164Z,559.83
2022-11-29T01:56:11.093Z,559.83
2022-11-29T01:56:21.043Z,559.81
2022-11-29T01:56:31.064Z,559.77
2022-11-29T01:56:41.042Z,559.79
2022-11-29T01:56:51.030Z,559.77
2022-11-29T01:57:01.029Z,559.74
2022-11-29T01:57:11.035Z,559.71
2022-11-29T01:57:21.047Z,559.75
2022-11-29T01:57:31.058Z,559.70
2022-11-29T01:57:41.031Z,559.71
2022-11-29T01:57:51.052Z,559.80
2022-11-29T01:58:01.051Z,559.78
2022-11-29T01:58:11.035Z,559.70
2022-11-29T01:58:21.054Z,559.77
2022-11-29T01:58:31.059Z,559.69
2022-11-29T01:58:41.052Z,559.64
2022-11-29T01:58:51.054Z,559.68
2022-11-29T01:59:01.048Z,559.68
2022-11-29T01:59:11.056Z,559.70
2022-11-29T01:59:21.056Z,559.67
2022-11-29T01:59:31.058Z,559.69
2022-11-29T01:59:41.042Z,559.69
2022-11-29T01:59:51.060Z,559.65
2022-11-29T02:00:01.071Z,559.62
2022-11-29T02:00:11.061Z,559.69
2022-11-29T02:00:21.067Z,559.70
2022-11-29T02:00:31.060Z,559.70
2022-11-29T02:00:41.062Z,559.65
2022-11-29T02:00:51.066Z,559.66
2022-11-29T02:01:01.081Z,559.60
2022-11-29T02:01:11.122Z,559.72
2022-11-29T02:01:21.134Z,559.66
2022-11-29T02:01:31.120Z,559.62
2022-11-29T02:01:41.149Z,559.68
2022-11-29T02:01:51.069Z,559.72
2022-11-29T02:02:01.051Z,559.70
2022-11-29T02:02:11.112Z,559.69
2022-11-29T02:02:21.122Z,559.71
2022-11-29T02:02:31.090Z,559.69
2022-11-29T02:02:41.132Z,559.69
2022-11-29T02:02:51.112Z,559.73
2022-11-29T02:03:01.067Z,559.72
2022-11-29T02:03:11.076Z,559.77
2022-11-29T02:03:21.073Z,559.76
2022-11-29T02:03:31.058Z,559.76
2022-11-29T02:03:41.083Z,559.81
2022-11-29T02:03:51.080Z,559.78
2022-11-29T02:04:01.096Z,559.85
2022-11-29T02:04:11.083Z,559.81
2022-11-29T02:04:21.079Z,559.83
2022-11-29T02:04:31.080Z,559.79
2022-11-29T02:04:41.081Z,559.84